Terminal Aerodrome Forecast
Issued by NWS Twin Cities, MN

Home | Current Version | Previous Version | Graphics & Text | Print | Product List | Glossary On
Versions: 1 2 3 4 5 6 7 8 9 10 11 12
000
FTUS43 KMPX 252320
TAFEAU
TAF
KEAU 252320Z 2600/2624 07004KT 6SM -SHRA BR SCT025 OVC045
      TEMPO 2600/2604 4SM -SHRA BR BKN025
     FM260400 05008KT 5SM -RA BR OVC025
     FM261200 02007KT 3SM -RA BR OVC003
     FM262100 35009KT P6SM VCSH OVC003=

USA.gov is the U.S. government's official web portal to all federal, state and local government web resources and services.